ELGK1: Caney River

Data processed at Tue May 21 2019 23:50


All information presented herein is the property of the government of the United States of America and may be revised or deleted at any time without prior notice.
Dissemination of this information without the expressed written consent of the Public Affairs Office, Tulsa District U.S. Army Corps of Engineers is strictly prohibited.
These data are gathered electronically and, as presented, have not undergone any form of quality control. These data are not guaranteed to be valid or correct.
Go to home page.
Go to station list.
Go to home page.

Upstream stations:

Downstream station:
Previous Day
Next Day
Current Day
    
SHEF ID:       ELGK1     CANEY R NR ELGIN, KS
STATION TYPE:  
Regulating: Stage =    25.00, Flow =    30792

               PRECIP     STAGE  STAGE(2)  RIV-FLOW  BAT-LOAD
                   in        ft        ft       cfs      volt
              Ccp-Rev   Ccp-Rev   Ccp-Rev   Ccp-Rev   Ccp-Rev
(US/Central)
05/21 00:00      0.07     23.91      ----     29286     12.65
05/21 01:00      0.20     24.56      ----     30202     12.60
05/21 02:00      0.23     25.07      ----     30885     12.65
05/21 03:00      0.09     25.31      ----     31204     12.65
05/21 04:00      0.01     25.09      ----     30912     12.65
05/21 05:00      0.07     24.82      ----     30553     12.65
05/21 06:00      1.04     24.71      ----     30407     12.60
05/21 07:00      0.31     25.36      ----     31269     12.65
05/21 08:00      0.13     25.44      ----     31373     12.65
05/21 09:00      0.13     25.75      ----     31773     12.71
05/21 10:00      0.09     26.20      ----     32290     12.65
05/21 11:00      0.00     26.40      ----     32493     12.71
05/21 12:00      0.00     26.60      ----     32695     12.71
05/21 13:00      0.00     26.35      ----     32442     12.83
05/21 14:00      0.00     25.89      ----     31954     13.36
05/21 15:00      0.00     25.22      ----     31085     13.36
05/21 16:00      0.00     24.54      ----     30174     13.36
05/21 17:00      0.00     23.74      ----     29046     13.18
05/21 18:00      0.00     22.98      ----     27977     13.36
05/21 19:00      0.00     22.12      ----     26768     13.18
05/21 20:00      0.00     21.50      ----     25897     13.00
05/21 21:00      0.00     20.72      ----     24802     12.95
05/21 22:00      0.00     19.97      ----     23751     12.89
05/21 23:00      0.00     19.08      ----     22506     12.83